createdAt,value
2022-09-22T00:01:30.890Z,54.88
2022-09-22T00:04:03.351Z,54.32
2022-09-22T00:06:37.204Z,55.14
2022-09-22T00:09:10.104Z,55.55
2022-09-22T00:11:43.226Z,54.12
2022-09-22T00:14:16.993Z,54.65
2022-09-22T00:16:57.542Z,54.19
2022-09-22T00:19:32.931Z,54.07
2022-09-22T00:22:00.937Z,53.85
2022-09-22T00:24:28.854Z,53.41
2022-09-22T00:27:01.956Z,54.03
2022-09-22T00:29:30.557Z,53.31
2022-09-22T00:32:00.264Z,53.46
2022-09-22T00:34:29.472Z,53.98
2022-09-22T00:36:59.020Z,54.58
2022-09-22T00:39:30.884Z,54.30
2022-09-22T00:42:00.466Z,53.55
2022-09-22T00:44:32.708Z,53.55
2022-09-22T00:47:02.665Z,53.99
2022-09-22T00:49:43.842Z,54.12
2022-09-22T00:52:20.358Z,54.52
2022-09-22T00:54:49.834Z,55.18
2022-09-22T00:57:26.323Z,54.65
2022-09-22T00:59:54.734Z,54.96
2022-09-22T01:02:22.290Z,54.09
2022-09-22T01:04:52.254Z,54.25
2022-09-22T01:07:20.220Z,54.43
2022-09-22T01:09:49.787Z,55.23
2022-09-22T01:12:20.116Z,55.21
2022-09-22T01:15:13.364Z,54.58
2022-09-22T01:18:12.888Z,54.83
2022-09-22T01:20:50.473Z,55.37
2022-09-22T01:23:30.762Z,55.94
2022-09-22T01:25:57.675Z,55.17
2022-09-22T01:29:05.620Z,55.26
2022-09-22T01:31:55.162Z,55.38
2022-09-22T01:34:37.738Z,55.31
2022-09-22T01:37:19.850Z,55.05
2022-09-22T01:39:55.428Z,55.15
2022-09-22T01:42:47.215Z,55.83
2022-09-22T01:45:24.243Z,56.08
2022-09-22T01:48:25.088Z,55.25
2022-09-22T01:51:08.885Z,56.47
2022-09-22T01:53:43.793Z,56.77
2022-09-22T01:56:15.892Z,56.33
2022-09-22T01:58:50.531Z,57.88
2022-09-22T02:01:27.328Z,56.80
2022-09-22T02:04:03.237Z,56.93
2022-09-22T02:06:45.381Z,56.70
2022-09-22T02:09:21.034Z,56.08
2022-09-22T02:11:48.661Z,55.18
2022-09-22T02:14:16.640Z,55.59
2022-09-22T02:16:43.751Z,55.23
2022-09-22T02:19:24.290Z,55.49
2022-09-22T02:21:51.565Z,55.58
2022-09-22T02:24:42.114Z,56.25
2022-09-22T02:27:25.670Z,55.15
2022-09-22T02:30:13.522Z,55.57
2022-09-22T02:32:46.784Z,55.31
2022-09-22T02:35:14.774Z,55.45
2022-09-22T02:38:10.750Z,56.36
2022-09-22T02:41:08.562Z,55.79
2022-09-22T02:44:14.640Z,55.38
2022-09-22T02:46:50.452Z,55.20
2022-09-22T02:49:19.164Z,54.21
2022-09-22T02:51:49.675Z,55.12
2022-09-22T02:54:17.426Z,55.44
2022-09-22T02:56:45.481Z,54.71
2022-09-22T02:59:14.696Z,54.85
2022-09-22T03:01:41.972Z,55.55
2022-09-22T03:04:11.207Z,55.17
2022-09-22T03:06:38.671Z,54.65
2022-09-22T03:09:05.892Z,55.23
2022-09-22T03:11:35.304Z,55.50
2022-09-22T03:14:02.278Z,55.82
2022-09-22T03:16:29.839Z,54.87
2022-09-22T03:18:57.449Z,56.14
2022-09-22T03:21:24.680Z,55.01
2022-09-22T03:23:51.747Z,55.67
2022-09-22T03:26:18.877Z,55.92
2022-09-22T03:28:45.992Z,55.53
2022-09-22T03:31:13.110Z,54.60
2022-09-22T03:33:40.229Z,54.34
2022-09-22T03:36:07.585Z,53.85
2022-09-22T03:38:36.756Z,54.19
2022-09-22T03:41:06.408Z,54.37
2022-09-22T03:43:33.673Z,54.15
2022-09-22T03:46:03.018Z,54.76
2022-09-22T03:48:31.447Z,54.63
2022-09-22T03:50:58.772Z,53.58
2022-09-22T03:53:28.646Z,54.77
2022-09-22T03:56:15.959Z,53.62
2022-09-22T03:58:44.191Z,53.48
2022-09-22T04:01:12.036Z,53.48
2022-09-22T04:03:39.790Z,55.87
2022-09-22T04:06:07.738Z,54.11
2022-09-22T04:08:34.917Z,53.33
2022-09-22T04:11:03.729Z,53.67
2022-09-22T04:13:31.083Z,53.08
2022-09-22T04:16:00.321Z,54.27
2022-09-22T04:18:30.139Z,52.93
2022-09-22T04:20:58.812Z,52.35
2022-09-22T04:23:27.450Z,51.62
2022-09-22T04:25:54.669Z,52.13
2022-09-22T04:28:21.885Z,52.90
2022-09-22T04:30:49.322Z,52.54
2022-09-22T04:33:17.096Z,52.52
2022-09-22T04:35:44.136Z,52.55
2022-09-22T04:38:11.392Z,53.04
2022-09-22T04:40:38.641Z,52.52
2022-09-22T04:43:05.849Z,52.16
2022-09-22T04:45:37.374Z,52.46
2022-09-22T04:48:08.961Z,52.57
2022-09-22T04:50:38.483Z,53.01
2022-09-22T04:53:05.662Z,52.07
2022-09-22T04:55:32.628Z,51.80
2022-09-22T04:58:00.487Z,52.13
2022-09-22T05:00:31.621Z,52.18
2022-09-22T05:02:59.060Z,51.83
2022-09-22T05:05:28.461Z,52.49
2022-09-22T05:07:55.593Z,51.94
2022-09-22T05:10:27.291Z,51.05
2022-09-22T05:12:56.979Z,51.12
2022-09-22T05:15:23.986Z,51.47
2022-09-22T05:17:54.098Z,50.80
2022-09-22T05:20:24.821Z,51.17
2022-09-22T05:22:56.789Z,50.91
2022-09-22T05:25:23.854Z,51.96
2022-09-22T05:27:56.887Z,49.71
2022-09-22T05:30:37.093Z,49.39
2022-09-22T05:33:07.322Z,50.25
2022-09-22T05:35:36.799Z,49.48
2022-09-22T05:38:06.916Z,49.35
2022-09-22T05:40:39.511Z,49.34
2022-09-22T05:43:07.104Z,48.56
2022-09-22T05:45:34.211Z,48.67
2022-09-22T05:48:04.432Z,48.47
2022-09-22T05:50:34.128Z,48.36
2022-09-22T05:53:10.599Z,48.51
2022-09-22T05:55:39.784Z,48.48
2022-09-22T05:58:09.262Z,48.16
2022-09-22T06:00:36.756Z,48.31
2022-09-22T06:03:04.408Z,47.71
2022-09-22T06:05:35.820Z,48.66
2022-09-22T06:08:06.418Z,47.55
2022-09-22T06:10:38.520Z,47.79
2022-09-22T06:13:09.357Z,45.93
2022-09-22T06:15:38.375Z,45.38
2022-09-22T06:18:13.165Z,45.51
2022-09-22T06:20:43.131Z,45.22
2022-09-22T06:23:12.800Z,45.37
2022-09-22T06:25:39.818Z,45.72
2022-09-22T06:28:09.863Z,45.49
2022-09-22T06:30:41.111Z,46.43
2022-09-22T06:33:14.253Z,46.46
2022-09-22T06:35:43.080Z,46.02
2022-09-22T06:38:17.430Z,46.09
2022-09-22T06:40:45.194Z,45.62
2022-09-22T06:43:15.137Z,45.76
2022-09-22T06:45:46.797Z,44.68
2022-09-22T06:48:13.883Z,45.39
2022-09-22T06:50:53.325Z,44.92
2022-09-22T06:53:24.233Z,44.16
2022-09-22T06:55:54.197Z,44.14
2022-09-22T06:58:22.449Z,42.87
2022-09-22T07:00:50.547Z,42.05
2022-09-22T07:03:22.641Z,41.45
2022-09-22T07:06:01.060Z,40.77
2022-09-22T07:08:33.420Z,39.94
2022-09-22T07:11:03.994Z,38.67
2022-09-22T07:13:36.980Z,38.70
2022-09-22T07:16:08.015Z,37.70
2022-09-22T07:18:40.244Z,36.82
2022-09-22T07:21:09.364Z,35.81
2022-09-22T07:23:36.834Z,37.60
2022-09-22T07:26:15.927Z,35.17
2022-09-22T07:28:44.626Z,34.87
2022-09-22T07:31:17.305Z,34.97
2022-09-22T07:33:46.259Z,35.75
2022-09-22T07:36:14.367Z,34.50
2022-09-22T07:38:43.642Z,33.75
2022-09-22T07:41:14.511Z,34.50
2022-09-22T07:43:42.408Z,32.98
2022-09-22T07:46:13.219Z,31.73
2022-09-22T07:48:47.934Z,30.94
2022-09-22T07:51:25.546Z,31.93
2022-09-22T07:54:09.629Z,29.46
2022-09-22T07:56:45.164Z,28.09
2022-09-22T07:59:16.855Z,29.70
2022-09-22T08:01:47.540Z,27.77
2022-09-22T08:04:18.940Z,28.57
2022-09-22T08:06:54.143Z,28.43
2022-09-22T08:09:21.929Z,28.43
2022-09-22T08:11:48.949Z,28.29
2022-09-22T08:14:18.590Z,29.32
2022-09-22T08:16:46.081Z,28.96
2022-09-22T08:19:15.786Z,29.54
2022-09-22T08:21:51.625Z,30.25
2022-09-22T08:24:23.298Z,30.19
2022-09-22T08:26:53.376Z,29.44
2022-09-22T08:29:21.161Z,30.60
2022-09-22T08:31:51.549Z,28.28
2022-09-22T08:34:21.856Z,26.57
2022-09-22T08:36:49.120Z,25.83
2022-09-22T08:39:18.183Z,25.79
2022-09-22T08:41:48.265Z,23.12
2022-09-22T08:44:37.579Z,22.39
2022-09-22T08:47:05.779Z,22.47
2022-09-22T08:50:03.412Z,21.71
2022-09-22T08:52:49.322Z,23.06
2022-09-22T08:55:30.739Z,21.47
2022-09-22T08:58:25.402Z,23.96
2022-09-22T09:01:12.316Z,24.77
2022-09-22T09:04:42.973Z,24.26
2022-09-22T09:07:46.771Z,24.02
2022-09-22T09:10:32.911Z,21.12
2022-09-22T09:13:40.407Z,23.04
2022-09-22T09:16:57.215Z,21.54
2022-09-22T09:19:58.208Z,26.36
2022-09-22T09:22:32.154Z,27.40
2022-09-22T09:25:24.690Z,26.49
2022-09-22T09:28:06.085Z,27.29
2022-09-22T09:30:51.304Z,28.53
2022-09-22T09:33:40.228Z,26.89
2022-09-22T09:38:55.355Z,30.29
2022-09-22T09:41:39.295Z,29.05
2022-09-22T09:44:06.742Z,28.74
2022-09-22T09:46:56.055Z,31.51
2022-09-22T09:49:24.406Z,32.47
2022-09-22T09:51:56.883Z,31.16
2022-09-22T09:54:26.033Z,31.23
2022-09-22T09:57:18.893Z,31.90
2022-09-22T10:00:07.323Z,29.15
2022-09-22T10:02:46.948Z,31.77
2022-09-22T10:05:22.492Z,29.01
2022-09-22T10:08:15.264Z,28.97
2022-09-22T10:10:45.937Z,27.00
2022-09-22T10:13:15.977Z,27.71
2022-09-22T10:16:21.017Z,27.62
2022-09-22T10:18:51.506Z,26.92
2022-09-22T10:21:23.668Z,28.81
2022-09-22T10:23:55.261Z,26.98
2022-09-22T10:26:31.230Z,28.43
2022-09-22T10:29:19.530Z,27.50
2022-09-22T10:32:06.443Z,26.73
2022-09-22T10:34:34.686Z,26.56
2022-09-22T10:37:05.472Z,25.16
2022-09-22T10:39:52.809Z,25.09
2022-09-22T10:42:46.303Z,24.83
2022-09-22T10:45:16.682Z,25.58
2022-09-22T10:47:56.357Z,25.91
2022-09-22T10:50:35.830Z,26.19
2022-09-22T10:53:27.841Z,26.53
2022-09-22T10:56:34.038Z,27.41
2022-09-22T10:59:38.234Z,29.13
2022-09-22T11:03:01.551Z,29.37
2022-09-22T11:06:12.356Z,30.30
2022-09-22T11:09:20.482Z,31.23
2022-09-22T11:12:12.946Z,28.90
2022-09-22T11:15:18.475Z,30.21
2022-09-22T11:18:46.729Z,29.54
2022-09-22T11:21:54.889Z,29.63
2022-09-22T11:24:47.725Z,31.76
2022-09-22T11:27:41.131Z,30.77
2022-09-22T11:30:21.748Z,30.23
2022-09-22T11:33:32.074Z,32.23
2022-09-22T11:36:40.727Z,32.34
2022-09-22T11:39:30.511Z,33.54
2022-09-22T11:42:25.206Z,34.91
2022-09-22T11:45:21.039Z,30.90
2022-09-22T11:48:11.482Z,29.13
2022-09-22T11:51:24.899Z,29.35
2022-09-22T11:54:13.888Z,28.81
2022-09-22T11:57:01.049Z,29.42
2022-09-22T11:59:50.953Z,31.33
2022-09-22T12:02:46.561Z,27.89
2022-09-22T12:05:33.964Z,26.94
2022-09-22T12:08:11.212Z,28.22
2022-09-22T12:10:47.763Z,27.66
2022-09-22T12:13:21.335Z,27.22
2022-09-22T12:16:25.206Z,26.97
2022-09-22T12:19:29.358Z,29.42
2022-09-22T12:22:15.959Z,29.59
2022-09-22T12:24:47.307Z,29.78
2022-09-22T12:27:23.613Z,32.43
2022-09-22T12:30:04.199Z,31.71
2022-09-22T12:32:42.865Z,31.56
2022-09-22T12:35:31.083Z,34.68
2022-09-22T12:38:02.393Z,34.79
2022-09-22T12:40:41.607Z,36.02
2022-09-22T12:43:21.266Z,36.05
2022-09-22T12:45:52.313Z,37.36
2022-09-22T12:48:29.310Z,37.19
2022-09-22T12:51:25.248Z,37.11
2022-09-22T12:54:12.635Z,36.88
2022-09-22T12:56:54.555Z,36.59
2022-09-22T13:00:07.095Z,35.74
2022-09-22T13:02:43.335Z,35.42
2022-09-22T13:05:10.231Z,34.49
2022-09-22T13:07:45.860Z,34.23
2022-09-22T13:10:22.254Z,35.77
2022-09-22T13:13:01.974Z,32.81
2022-09-22T13:15:50.192Z,29.92
2022-09-22T13:18:32.072Z,29.40
2022-09-22T13:21:21.112Z,28.11
2022-09-22T13:23:54.080Z,25.93
2022-09-22T13:26:31.627Z,27.44
2022-09-22T13:29:13.140Z,25.96
2022-09-22T13:31:51.050Z,26.91
2022-09-22T13:34:28.616Z,26.67
2022-09-22T13:37:22.778Z,28.02
2022-09-22T13:39:57.366Z,27.62
2022-09-22T13:42:34.128Z,27.60
2022-09-22T13:45:20.363Z,26.18
2022-09-22T13:47:48.932Z,26.07
2022-09-22T13:50:22.938Z,26.84
2022-09-22T13:52:51.590Z,26.23
2022-09-22T13:55:32.041Z,29.32
2022-09-22T13:58:00.046Z,30.87
2022-09-22T14:00:41.322Z,35.10
2022-09-22T14:03:22.297Z,38.08
2022-09-22T14:05:53.883Z,39.01
2022-09-22T14:08:30.639Z,37.69
2022-09-22T14:11:00.138Z,41.46
2022-09-22T14:13:38.830Z,41.71
2022-09-22T14:16:52.401Z,42.39
2022-09-22T14:19:22.881Z,43.29
2022-09-22T14:21:55.375Z,43.13
2022-09-22T14:24:23.229Z,42.92
2022-09-22T14:27:04.643Z,43.94
2022-09-22T14:29:36.977Z,44.06
2022-09-22T14:32:40.916Z,43.22
2022-09-22T14:35:27.610Z,44.89
2022-09-22T14:38:05.399Z,44.59
2022-09-22T14:40:55.531Z,42.67
2022-09-22T14:43:41.130Z,40.45
2022-09-22T14:46:41.863Z,39.43
2022-09-22T14:49:47.842Z,36.45
2022-09-22T14:52:30.720Z,36.91
2022-09-22T14:55:07.924Z,37.12
2022-09-22T14:57:36.211Z,37.65
2022-09-22T15:00:22.564Z,38.58
2022-09-22T15:02:55.714Z,37.34
2022-09-22T15:05:34.330Z,37.26
2022-09-22T15:08:02.499Z,37.65
2022-09-22T15:10:35.991Z,37.83
2022-09-22T15:13:29.802Z,39.58
2022-09-22T15:15:58.332Z,39.48
2022-09-22T15:18:29.922Z,40.92
2022-09-22T15:21:04.240Z,41.10
2022-09-22T15:23:45.328Z,40.12
2022-09-22T15:26:19.799Z,40.73
2022-09-22T15:28:51.099Z,39.39
2022-09-22T15:31:22.330Z,39.89
2022-09-22T15:33:49.735Z,39.01
2022-09-22T15:36:21.088Z,39.49
2022-09-22T15:38:48.662Z,38.84
2022-09-22T15:41:16.897Z,39.77
2022-09-22T15:43:44.503Z,39.65
2022-09-22T15:46:36.122Z,40.35
2022-09-22T15:49:23.314Z,40.45
2022-09-22T15:51:50.789Z,40.78
2022-09-22T15:54:21.997Z,40.40
2022-09-22T15:56:55.817Z,40.09
2022-09-22T15:59:28.178Z,42.56
2022-09-22T16:01:57.074Z,40.45
2022-09-22T16:04:24.614Z,40.75
2022-09-22T16:06:59.464Z,40.21
2022-09-22T16:09:26.540Z,41.08
2022-09-22T16:11:55.020Z,40.97
2022-09-22T16:14:23.003Z,40.05
2022-09-22T16:16:52.541Z,39.68
2022-09-22T16:19:22.215Z,39.43
2022-09-22T16:21:54.247Z,39.67
2022-09-22T16:24:22.714Z,39.71
2022-09-22T16:26:51.902Z,39.77
2022-09-22T16:29:19.079Z,40.42
2022-09-22T16:31:46.233Z,40.76
2022-09-22T16:34:13.339Z,40.88
2022-09-22T16:36:41.785Z,40.99
2022-09-22T16:39:09.255Z,44.68
2022-09-22T16:41:36.814Z,41.80
2022-09-22T16:44:06.255Z,42.22
2022-09-22T16:46:38.438Z,44.96
2022-09-22T16:49:10.092Z,43.33
2022-09-22T16:51:48.884Z,43.54
2022-09-22T16:54:17.738Z,43.96
2022-09-22T16:56:50.167Z,44.50
2022-09-22T16:59:23.551Z,44.66
2022-09-22T17:01:50.991Z,43.84
2022-09-22T17:04:21.562Z,44.19
2022-09-22T17:06:48.938Z,44.39
2022-09-22T17:09:16.912Z,45.85
2022-09-22T17:11:48.777Z,46.66
2022-09-22T17:14:24.486Z,46.07
2022-09-22T17:16:55.636Z,46.94
2022-09-22T17:19:26.417Z,48.28
2022-09-22T17:21:55.995Z,47.00
2022-09-22T17:24:25.094Z,47.33
2022-09-22T17:26:56.322Z,48.51
2022-09-22T17:29:26.508Z,47.97
2022-09-22T17:32:18.404Z,47.59
2022-09-22T17:34:45.438Z,47.82
2022-09-22T17:37:15.468Z,47.89
2022-09-22T17:39:43.618Z,48.08
2022-09-22T17:42:11.096Z,47.96
2022-09-22T17:44:38.103Z,49.30
2022-09-22T17:47:24.090Z,49.39
2022-09-22T17:50:09.497Z,49.56
2022-09-22T17:52:54.877Z,48.68
2022-09-22T17:55:25.300Z,49.30
2022-09-22T17:57:56.564Z,49.04
2022-09-22T18:00:25.961Z,50.78
2022-09-22T18:02:54.430Z,50.22
2022-09-22T18:05:32.099Z,50.28
2022-09-22T18:07:59.584Z,49.32
2022-09-22T18:10:32.301Z,49.71
2022-09-22T18:13:00.312Z,49.20
2022-09-22T18:15:29.287Z,49.50
2022-09-22T18:17:58.065Z,49.35
2022-09-22T18:20:26.293Z,49.52
2022-09-22T18:23:00.350Z,50.46
2022-09-22T18:25:28.325Z,49.86
2022-09-22T18:27:55.339Z,49.99
2022-09-22T18:30:22.438Z,51.93
2022-09-22T18:32:49.586Z,51.27
2022-09-22T18:35:17.168Z,50.66
2022-09-22T18:37:44.346Z,50.75
2022-09-22T18:40:12.494Z,52.45
2022-09-22T18:42:44.652Z,51.88
2022-09-22T18:45:12.590Z,51.34
2022-09-22T18:47:41.059Z,52.75
2022-09-22T18:50:09.892Z,52.39
2022-09-22T18:52:37.375Z,52.58
2022-09-22T18:55:05.191Z,51.64
2022-09-22T18:57:32.254Z,52.43
2022-09-22T19:00:00.388Z,54.10
2022-09-22T19:02:27.859Z,53.09
2022-09-22T19:04:55.043Z,54.12
2022-09-22T19:07:43.557Z,54.62
2022-09-22T19:10:14.843Z,55.59
2022-09-22T19:12:42.841Z,54.32
2022-09-22T19:15:19.073Z,53.52
2022-09-22T19:17:50.619Z,53.29
2022-09-22T19:20:26.235Z,53.69
2022-09-22T19:22:54.106Z,53.40
2022-09-22T19:25:22.557Z,52.65
2022-09-22T19:27:52.613Z,54.03
2022-09-22T19:30:23.291Z,53.26
2022-09-22T19:32:51.657Z,53.99
2022-09-22T19:35:19.639Z,56.01
2022-09-22T19:37:47.000Z,55.73
2022-09-22T19:40:18.680Z,56.01
2022-09-22T19:42:49.953Z,56.70
2022-09-22T19:45:17.227Z,55.27
2022-09-22T19:47:44.220Z,54.78
2022-09-22T19:50:11.213Z,53.74
2022-09-22T19:52:38.313Z,54.34
2022-09-22T19:55:11.584Z,54.75
2022-09-22T19:57:41.215Z,54.95
2022-09-22T20:00:18.061Z,56.56
2022-09-22T20:02:46.107Z,56.10
2022-09-22T20:05:21.939Z,55.67
2022-09-22T20:07:50.084Z,55.15
2022-09-22T20:10:19.280Z,55.08
2022-09-22T20:12:49.964Z,55.17
2022-09-22T20:15:22.332Z,55.02
2022-09-22T20:17:49.501Z,53.67
2022-09-22T20:20:24.144Z,54.31
2022-09-22T20:23:01.114Z,54.33
2022-09-22T20:25:33.735Z,53.91
2022-09-22T20:28:00.844Z,54.15
2022-09-22T20:30:30.252Z,53.86
2022-09-22T20:32:57.295Z,52.98
2022-09-22T20:35:24.451Z,55.15
2022-09-22T20:37:51.746Z,53.72
2022-09-22T20:40:21.445Z,53.55
2022-09-22T20:42:51.010Z,54.44
2022-09-22T20:45:22.887Z,53.00
2022-09-22T20:47:50.289Z,53.82
2022-09-22T20:50:17.459Z,53.41
2022-09-22T20:52:44.554Z,53.81
2022-09-22T20:55:12.010Z,52.81
2022-09-22T20:57:40.326Z,53.24
2022-09-22T21:00:08.533Z,53.19
2022-09-22T21:02:35.669Z,53.07
2022-09-22T21:05:05.535Z,53.39
2022-09-22T21:07:33.283Z,52.88
2022-09-22T21:10:19.352Z,52.59
2022-09-22T21:12:46.361Z,54.88
2022-09-22T21:15:15.801Z,55.72
2022-09-22T21:17:43.938Z,53.92
2022-09-22T21:20:13.972Z,54.20
2022-09-22T21:22:40.975Z,54.36
2022-09-22T21:25:08.610Z,53.51
2022-09-22T21:27:36.397Z,53.31
2022-09-22T21:30:03.582Z,54.28
2022-09-22T21:32:31.282Z,54.66
2022-09-22T21:34:58.395Z,53.65
2022-09-22T21:37:25.679Z,53.31
2022-09-22T21:39:52.708Z,54.24
2022-09-22T21:42:21.829Z,53.48
2022-09-22T21:44:48.843Z,53.94
2022-09-22T21:47:15.881Z,53.63
2022-09-22T21:49:45.395Z,53.31
2022-09-22T21:52:12.359Z,53.46
2022-09-22T21:54:41.612Z,52.94
2022-09-22T21:57:10.798Z,52.63
2022-09-22T21:59:37.814Z,52.93
2022-09-22T22:02:04.960Z,52.87
2022-09-22T22:04:32.680Z,52.55
2022-09-22T22:06:59.778Z,52.38
2022-09-22T22:09:26.842Z,52.68
2022-09-22T22:11:59.365Z,53.10
2022-09-22T22:14:32.090Z,52.99
2022-09-22T22:17:00.571Z,52.71
2022-09-22T22:19:27.762Z,52.58
2022-09-22T22:21:55.415Z,52.42
2022-09-22T22:24:25.562Z,52.47
2022-09-22T22:27:10.101Z,52.17
2022-09-22T22:29:41.184Z,52.21
2022-09-22T22:32:10.544Z,52.48
2022-09-22T22:34:40.387Z,52.27
2022-09-22T22:37:10.092Z,52.37
2022-09-22T22:39:37.679Z,52.61
2022-09-22T22:42:05.446Z,52.44
2022-09-22T22:44:32.536Z,52.87
2022-09-22T22:46:59.597Z,52.17
2022-09-22T22:49:28.247Z,51.84
2022-09-22T22:51:55.294Z,53.33
2022-09-22T22:54:22.367Z,54.29
2022-09-22T22:56:51.406Z,55.66
2022-09-22T22:59:19.187Z,53.52
2022-09-22T23:01:46.327Z,53.20
2022-09-22T23:04:13.770Z,52.86
2022-09-22T23:06:47.379Z,53.22
2022-09-22T23:09:16.813Z,53.50
2022-09-22T23:11:45.932Z,53.24
2022-09-22T23:14:17.086Z,53.39
2022-09-22T23:16:49.405Z,52.68
2022-09-22T23:19:18.300Z,53.47
2022-09-22T23:21:46.411Z,53.10
2022-09-22T23:24:19.117Z,52.74
2022-09-22T23:26:49.805Z,52.78
2022-09-22T23:29:16.885Z,52.76
2022-09-22T23:31:44.128Z,52.82
2022-09-22T23:34:11.118Z,53.33
2022-09-22T23:36:39.616Z,53.48
2022-09-22T23:39:06.872Z,52.62
2022-09-22T23:41:36.583Z,52.65
2022-09-22T23:44:06.940Z,52.97
2022-09-22T23:46:34.838Z,52.79
2022-09-22T23:49:02.406Z,52.67
2022-09-22T23:51:32.300Z,52.85
2022-09-22T23:53:59.599Z,52.39
2022-09-22T23:56:29.072Z,52.07
2022-09-22T23:58:56.104Z,52.29
